createdAt,value
2018-06-09T00:00:36.543Z,942.67
2018-06-09T00:01:36.489Z,942.67
2018-06-09T00:02:36.406Z,942.67
2018-06-09T00:03:36.281Z,942.70
2018-06-09T00:04:36.197Z,942.68
2018-06-09T00:05:36.113Z,942.74
2018-06-09T00:06:36.058Z,942.75
2018-06-09T00:07:35.934Z,942.81
2018-06-09T00:08:35.848Z,942.85
2018-06-09T00:09:35.765Z,942.81
2018-06-09T00:10:35.677Z,942.83
2018-06-09T00:11:35.619Z,942.84
2018-06-09T00:12:35.504Z,942.87
2018-06-09T00:13:35.416Z,942.92
2018-06-09T00:14:35.330Z,942.94
2018-06-09T00:15:35.244Z,942.95
2018-06-09T00:16:35.190Z,942.89
2018-06-09T00:17:35.071Z,942.92
2018-06-09T00:18:34.983Z,942.95
2018-06-09T00:19:34.928Z,942.87
2018-06-09T00:20:34.811Z,942.87
2018-06-09T00:21:34.852Z,942.91
2018-06-09T00:22:34.638Z,942.91
2018-06-09T00:23:34.550Z,942.92
2018-06-09T00:24:34.465Z,943.00
2018-06-09T00:25:34.383Z,942.99
2018-06-09T00:26:34.319Z,942.99
2018-06-09T00:27:34.204Z,942.95
2018-06-09T00:28:34.117Z,942.96
2018-06-09T00:29:34.031Z,942.96
2018-06-09T00:30:33.943Z,942.94
2018-06-09T00:31:33.886Z,942.92
2018-06-09T00:32:33.771Z,942.91
2018-06-09T00:33:33.685Z,942.92
2018-06-09T00:34:33.611Z,942.90
2018-06-09T00:35:33.621Z,942.88
2018-06-09T00:36:33.454Z,942.86
2018-06-09T00:37:33.334Z,942.83
2018-06-09T00:38:33.252Z,942.80
2018-06-09T00:39:33.163Z,942.80
2018-06-09T00:40:33.077Z,942.77
2018-06-09T00:41:32.996Z,942.75
2018-06-09T00:42:33.036Z,942.71
2018-06-09T00:43:32.816Z,942.71
2018-06-09T00:44:32.729Z,942.72
2018-06-09T00:45:32.646Z,942.72
2018-06-09T00:46:32.561Z,942.75
2018-06-09T00:47:32.501Z,942.70
2018-06-09T00:48:32.384Z,942.75
2018-06-09T00:49:32.394Z,942.72
2018-06-09T00:50:32.210Z,942.71
2018-06-09T00:51:32.125Z,942.71
2018-06-09T00:52:32.070Z,942.68
2018-06-09T00:53:31.950Z,942.68
2018-06-09T00:54:31.863Z,942.68
2018-06-09T00:55:31.778Z,942.68
2018-06-09T00:56:31.810Z,942.67
2018-06-09T00:57:31.636Z,942.68
2018-06-09T00:58:31.519Z,942.70
2018-06-09T00:59:31.430Z,942.68
2018-06-09T01:00:31.345Z,942.66
2018-06-09T01:01:31.260Z,942.65
2018-06-09T01:02:31.201Z,942.60
2018-06-09T01:03:31.181Z,942.61
2018-06-09T01:04:30.996Z,942.55
2018-06-09T01:05:30.912Z,942.55
2018-06-09T01:06:30.821Z,942.56
2018-06-09T01:07:30.765Z,942.54
2018-06-09T01:08:30.648Z,942.52
2018-06-09T01:09:30.563Z,942.49
2018-06-09T01:10:30.575Z,942.48
2018-06-09T01:11:30.389Z,942.50
2018-06-09T01:12:30.332Z,942.47
2018-06-09T01:13:30.212Z,942.48
2018-06-09T01:14:30.130Z,942.48
2018-06-09T01:15:30.040Z,942.47
2018-06-09T01:16:29.955Z,942.46
2018-06-09T01:17:29.972Z,942.45
2018-06-09T01:18:29.783Z,942.48
2018-06-09T01:19:29.693Z,942.51
2018-06-09T01:20:29.608Z,942.51
2018-06-09T01:21:29.523Z,942.49
2018-06-09T01:22:29.464Z,942.47
2018-06-09T01:23:29.346Z,942.47
2018-06-09T01:24:29.354Z,942.44
2018-06-09T01:25:29.172Z,942.48
2018-06-09T01:26:29.086Z,942.46
2018-06-09T01:27:29.031Z,942.48
2018-06-09T01:28:28.913Z,942.43
2018-06-09T01:29:28.828Z,942.44
2018-06-09T01:30:28.739Z,942.44
2018-06-09T01:31:28.650Z,942.46
2018-06-09T01:32:28.597Z,942.39
2018-06-09T01:33:28.475Z,942.39
2018-06-09T01:34:28.389Z,942.38
2018-06-09T01:35:28.302Z,942.35
2018-06-09T01:36:28.217Z,942.33
2018-06-09T01:37:28.159Z,942.32
2018-06-09T01:38:28.041Z,942.28
2018-06-09T01:39:27.954Z,942.30
2018-06-09T01:40:27.868Z,942.29
2018-06-09T01:41:27.783Z,942.24
2018-06-09T01:42:27.724Z,942.22
2018-06-09T01:43:27.605Z,942.21
2018-06-09T01:44:27.520Z,942.21
2018-06-09T01:45:27.435Z,942.19
2018-06-09T01:46:27.346Z,942.17
2018-06-09T01:47:27.288Z,942.13
2018-06-09T01:48:27.173Z,942.20
2018-06-09T01:49:27.088Z,942.18
2018-06-09T01:50:26.998Z,942.19
2018-06-09T01:51:26.910Z,942.15
2018-06-09T01:52:26.853Z,942.16
2018-06-09T01:53:26.736Z,942.10
2018-06-09T01:54:26.653Z,942.13
2018-06-09T01:55:26.563Z,942.10
2018-06-09T01:56:26.473Z,942.12
2018-06-09T01:57:26.421Z,942.14
2018-06-09T01:58:26.303Z,942.14
2018-06-09T01:59:26.216Z,942.17
2018-06-09T02:00:26.126Z,942.16
2018-06-09T02:01:26.040Z,942.15
2018-06-09T02:02:25.983Z,942.21
2018-06-09T02:03:25.868Z,942.26
2018-06-09T02:04:25.779Z,942.23
2018-06-09T02:05:25.691Z,942.25
2018-06-09T02:06:25.603Z,942.21
2018-06-09T02:07:25.550Z,942.26
2018-06-09T02:08:25.432Z,942.28
2018-06-09T02:09:25.343Z,942.23
2018-06-09T02:10:25.255Z,942.22
2018-06-09T02:11:25.182Z,942.26
2018-06-09T02:12:25.086Z,942.28
2018-06-09T02:13:25.026Z,942.23
2018-06-09T02:14:24.908Z,942.24
2018-06-09T02:15:24.822Z,942.17
2018-06-09T02:16:24.733Z,942.18
2018-06-09T02:17:24.649Z,942.16
2018-06-09T02:18:24.598Z,942.19
2018-06-09T02:19:24.473Z,942.23
2018-06-09T02:20:24.387Z,942.22
2018-06-09T02:21:24.297Z,942.21
2018-06-09T02:22:24.216Z,942.21
2018-06-09T02:23:24.158Z,942.22
2018-06-09T02:24:24.037Z,942.21
2018-06-09T02:25:23.954Z,942.19
2018-06-09T02:26:23.868Z,942.17
2018-06-09T02:27:23.780Z,942.13
2018-06-09T02:28:23.720Z,942.12
2018-06-09T02:29:23.602Z,942.09
2018-06-09T02:30:23.520Z,942.12
2018-06-09T02:31:23.428Z,942.15
2018-06-09T02:32:23.344Z,942.12
2018-06-09T02:33:23.287Z,942.13
2018-06-09T02:34:23.171Z,942.07
2018-06-09T02:35:23.086Z,942.09
2018-06-09T02:36:22.995Z,942.06
2018-06-09T02:37:22.911Z,942.04
2018-06-09T02:38:22.856Z,942.03
2018-06-09T02:39:22.733Z,942.02
2018-06-09T02:40:22.649Z,942.01
2018-06-09T02:41:22.560Z,941.96
2018-06-09T02:42:22.476Z,941.98
2018-06-09T02:43:22.420Z,941.96
2018-06-09T02:44:22.309Z,941.96
2018-06-09T02:45:22.216Z,941.95
2018-06-09T02:46:22.127Z,941.96
2018-06-09T02:47:22.039Z,941.97
2018-06-09T02:48:21.984Z,941.93
2018-06-09T02:49:21.865Z,941.93
2018-06-09T02:50:21.777Z,941.94
2018-06-09T02:51:21.690Z,941.93
2018-06-09T02:52:21.604Z,941.93
2018-06-09T02:53:21.551Z,941.95
2018-06-09T02:54:21.528Z,941.99
2018-06-09T02:55:21.344Z,941.99
2018-06-09T02:56:21.254Z,941.99
2018-06-09T02:57:21.168Z,942.00
2018-06-09T02:58:21.112Z,942.03
2018-06-09T02:59:20.993Z,942.00
2018-06-09T03:00:20.907Z,942.02
2018-06-09T03:01:20.824Z,942.04
2018-06-09T03:02:20.734Z,942.05
2018-06-09T03:03:20.678Z,942.06
2018-06-09T03:04:20.563Z,942.07
2018-06-09T03:05:20.475Z,942.06
2018-06-09T03:06:20.389Z,942.04
2018-06-09T03:07:20.300Z,942.06
2018-06-09T03:08:20.336Z,942.04
2018-06-09T03:09:20.125Z,942.03
2018-06-09T03:10:20.040Z,942.05
2018-06-09T03:11:19.952Z,941.99
2018-06-09T03:12:19.863Z,942.04
2018-06-09T03:13:19.807Z,942.03
2018-06-09T03:14:19.690Z,942.04
2018-06-09T03:15:19.695Z,942.04
2018-06-09T03:16:19.517Z,942.05
2018-06-09T03:17:19.430Z,942.07
2018-06-09T03:18:19.372Z,942.07
2018-06-09T03:19:19.259Z,942.07
2018-06-09T03:20:19.167Z,942.08
2018-06-09T03:21:19.080Z,942.11
2018-06-09T03:22:19.085Z,942.10
2018-06-09T03:23:18.935Z,942.14
2018-06-09T03:24:18.817Z,942.14
2018-06-09T03:25:18.729Z,942.15
2018-06-09T03:26:18.643Z,942.15
2018-06-09T03:27:18.569Z,942.15
2018-06-09T03:28:18.495Z,942.15
2018-06-09T03:29:18.474Z,942.16
2018-06-09T03:30:18.298Z,942.18
2018-06-09T03:31:18.205Z,942.17
2018-06-09T03:32:18.120Z,942.18
2018-06-09T03:33:18.062Z,942.19
2018-06-09T03:34:17.948Z,942.21
2018-06-09T03:35:17.858Z,942.26
2018-06-09T03:36:17.769Z,942.26
2018-06-09T03:37:17.686Z,942.27
2018-06-09T03:38:17.628Z,942.27
2018-06-09T03:39:17.507Z,942.28
2018-06-09T03:40:17.420Z,942.27
2018-06-09T03:41:17.330Z,942.26
2018-06-09T03:42:17.244Z,942.29
2018-06-09T03:43:17.229Z,942.32
2018-06-09T03:44:17.098Z,942.34
2018-06-09T03:45:16.981Z,942.30
2018-06-09T03:46:16.893Z,942.30
2018-06-09T03:47:16.804Z,942.30
2018-06-09T03:48:16.719Z,942.28
2018-06-09T03:49:16.660Z,942.28
2018-06-09T03:50:16.542Z,942.28
2018-06-09T03:51:16.551Z,942.31
2018-06-09T03:52:16.368Z,942.29
2018-06-09T03:53:16.284Z,942.33
2018-06-09T03:54:16.224Z,942.34
2018-06-09T03:55:16.102Z,942.35
2018-06-09T03:56:16.020Z,942.37
2018-06-09T03:57:15.930Z,942.38
2018-06-09T03:58:15.946Z,942.37
2018-06-09T03:59:15.784Z,942.41
2018-06-09T04:00:15.665Z,942.41
2018-06-09T04:01:15.576Z,942.37
2018-06-09T04:02:15.491Z,942.40
2018-06-09T04:03:15.402Z,942.44
2018-06-09T04:04:15.345Z,942.40
2018-06-09T04:05:15.321Z,942.42
2018-06-09T04:06:15.141Z,942.44
2018-06-09T04:07:15.052Z,942.44
2018-06-09T04:08:14.965Z,942.40
2018-06-09T04:09:14.911Z,942.43
2018-06-09T04:10:14.789Z,942.46
2018-06-09T04:11:14.699Z,942.51
2018-06-09T04:12:14.708Z,942.53
2018-06-09T04:13:14.525Z,942.54
2018-06-09T04:14:14.473Z,942.50
2018-06-09T04:15:14.350Z,942.51
2018-06-09T04:16:14.261Z,942.50
2018-06-09T04:17:14.175Z,942.51
2018-06-09T04:18:14.093Z,942.50
2018-06-09T04:19:14.122Z,942.48
2018-06-09T04:20:13.910Z,942.54
2018-06-09T04:21:13.840Z,942.54
2018-06-09T04:22:13.739Z,942.52
2018-06-09T04:23:13.653Z,942.56
2018-06-09T04:24:13.593Z,942.53
2018-06-09T04:25:13.473Z,942.55
2018-06-09T04:26:13.482Z,942.59
2018-06-09T04:27:13.299Z,942.62
2018-06-09T04:28:13.212Z,942.62
2018-06-09T04:29:13.160Z,942.63
2018-06-09T04:30:13.038Z,942.60
2018-06-09T04:31:12.950Z,942.64
2018-06-09T04:32:12.882Z,942.67
2018-06-09T04:33:12.775Z,942.71
2018-06-09T04:34:12.716Z,942.66
2018-06-09T04:35:12.600Z,942.67
2018-06-09T04:36:12.514Z,942.69
2018-06-09T04:37:12.427Z,942.68
2018-06-09T04:38:12.340Z,942.72
2018-06-09T04:39:12.283Z,942.71
2018-06-09T04:40:12.164Z,942.73
2018-06-09T04:41:12.081Z,942.71
2018-06-09T04:42:11.990Z,942.70
2018-06-09T04:43:11.904Z,942.70
2018-06-09T04:44:11.845Z,942.70
2018-06-09T04:45:11.728Z,942.71
2018-06-09T04:46:11.642Z,942.76
2018-06-09T04:47:11.553Z,942.78
2018-06-09T04:48:11.469Z,942.80
2018-06-09T04:49:11.414Z,942.79
2018-06-09T04:50:11.295Z,942.78
2018-06-09T04:51:11.206Z,942.77
2018-06-09T04:52:11.158Z,942.79
2018-06-09T04:53:11.041Z,942.79
2018-06-09T04:54:10.981Z,942.79
2018-06-09T04:55:10.861Z,942.80
2018-06-09T04:56:10.778Z,942.83
2018-06-09T04:57:10.689Z,942.82
2018-06-09T04:58:10.601Z,942.86
2018-06-09T04:59:10.553Z,942.88
2018-06-09T05:00:10.426Z,942.86
2018-06-09T05:01:10.343Z,942.84
2018-06-09T05:02:10.256Z,942.86
2018-06-09T05:03:10.171Z,942.87
2018-06-09T05:04:10.115Z,942.83
2018-06-09T05:05:10.002Z,942.85
2018-06-09T05:06:09.912Z,942.81
2018-06-09T05:07:09.866Z,942.84
2018-06-09T05:08:09.741Z,942.86
2018-06-09T05:09:09.688Z,942.89
2018-06-09T05:10:09.565Z,942.92
2018-06-09T05:11:09.481Z,942.94
2018-06-09T05:12:09.394Z,942.94
2018-06-09T05:13:09.311Z,942.94
2018-06-09T05:14:09.229Z,942.94
2018-06-09T05:15:09.168Z,942.97
2018-06-09T05:16:09.051Z,942.99
2018-06-09T05:17:08.965Z,942.98
2018-06-09T05:18:08.880Z,942.99
2018-06-09T05:19:08.795Z,942.99
2018-06-09T05:20:08.738Z,942.94
2018-06-09T05:21:08.622Z,942.94
2018-06-09T05:22:08.537Z,942.92
2018-06-09T05:23:08.450Z,942.92
2018-06-09T05:24:08.368Z,942.91
2018-06-09T05:25:08.324Z,942.91
2018-06-09T05:26:08.196Z,942.92
2018-06-09T05:27:08.109Z,942.96
2018-06-09T05:28:08.080Z,942.94
2018-06-09T05:29:07.942Z,942.96
2018-06-09T05:30:07.882Z,942.97
2018-06-09T05:31:07.767Z,942.97
2018-06-09T05:32:07.681Z,942.94
2018-06-09T05:33:07.599Z,943.02
2018-06-09T05:34:07.513Z,943.01
2018-06-09T05:35:07.461Z,942.96
2018-06-09T05:36:07.341Z,943.01
2018-06-09T05:37:07.255Z,943.02
2018-06-09T05:38:07.172Z,942.99
2018-06-09T05:39:07.088Z,943.00
2018-06-09T05:40:07.035Z,943.00
2018-06-09T05:41:06.916Z,942.97
2018-06-09T05:42:06.831Z,943.02
2018-06-09T05:43:06.745Z,943.01
2018-06-09T05:44:06.659Z,942.99
2018-06-09T05:45:06.606Z,943.00
2018-06-09T05:46:06.494Z,943.03
2018-06-09T05:47:06.406Z,942.99
2018-06-09T05:48:06.324Z,942.99
2018-06-09T05:49:06.346Z,942.90
2018-06-09T05:50:06.186Z,942.91
2018-06-09T05:51:06.068Z,942.91
2018-06-09T05:52:05.983Z,942.96
2018-06-09T05:53:05.901Z,942.98
2018-06-09T05:54:05.817Z,942.99
2018-06-09T05:55:05.763Z,943.04
2018-06-09T05:56:05.746Z,943.03
2018-06-09T05:57:05.566Z,943.11
2018-06-09T05:58:05.480Z,943.13
2018-06-09T05:59:05.395Z,943.15
2018-06-09T06:00:05.348Z,943.18
2018-06-09T06:01:05.224Z,943.18
2018-06-09T06:02:05.148Z,943.20
2018-06-09T06:03:05.156Z,943.24
2018-06-09T06:04:04.977Z,943.30
2018-06-09T06:05:04.924Z,943.35
2018-06-09T06:06:04.808Z,943.32
2018-06-09T06:07:04.724Z,943.38
2018-06-09T06:08:04.639Z,943.37
2018-06-09T06:09:04.554Z,943.40
2018-06-09T06:10:04.597Z,943.41
2018-06-09T06:11:04.388Z,943.42
2018-06-09T06:12:04.302Z,943.46
2018-06-09T06:13:04.223Z,943.42
2018-06-09T06:14:04.135Z,943.34
2018-06-09T06:15:04.081Z,943.35
2018-06-09T06:16:03.967Z,943.35
2018-06-09T06:17:03.977Z,943.33
2018-06-09T06:18:03.799Z,943.34
2018-06-09T06:19:03.718Z,943.32
2018-06-09T06:20:03.665Z,943.31
2018-06-09T06:21:03.548Z,943.32
2018-06-09T06:22:03.466Z,943.32
2018-06-09T06:23:03.383Z,943.30
2018-06-09T06:24:03.296Z,943.31
2018-06-09T06:25:03.247Z,943.31
2018-06-09T06:26:03.131Z,943.28
2018-06-09T06:27:03.047Z,943.33
2018-06-09T06:28:02.963Z,943.31
2018-06-09T06:29:02.883Z,943.33
2018-06-09T06:30:02.832Z,943.34
2018-06-09T06:31:02.712Z,943.30
2018-06-09T06:32:02.654Z,943.32
2018-06-09T06:33:02.557Z,943.40
2018-06-09T06:34:02.466Z,943.48
2018-06-09T06:35:02.413Z,943.72
2018-06-09T06:36:02.303Z,944.43
2018-06-09T06:37:02.216Z,944.98
2018-06-09T06:38:02.134Z,945.31
2018-06-09T06:39:02.049Z,945.43
2018-06-09T06:40:02.015Z,945.50
2018-06-09T06:41:01.885Z,945.57
2018-06-09T06:42:01.803Z,945.69
2018-06-09T06:43:01.719Z,945.91
2018-06-09T06:44:01.641Z,946.00
2018-06-09T06:45:01.598Z,946.09
2018-06-09T06:46:01.504Z,946.36
2018-06-09T06:47:01.400Z,946.58
2018-06-09T06:48:01.311Z,946.63
2018-06-09T06:49:01.232Z,946.87
2018-06-09T06:50:01.151Z,947.69
2018-06-09T06:51:01.099Z,948.71
2018-06-09T06:52:00.986Z,948.97
2018-06-09T06:53:00.909Z,947.86
2018-06-09T06:54:00.828Z,946.63
2018-06-09T06:55:00.749Z,945.51
2018-06-09T06:56:00.699Z,946.06
2018-06-09T06:57:00.590Z,945.89
2018-06-09T06:58:00.508Z,945.67
2018-06-09T06:59:00.429Z,945.66
2018-06-09T07:00:00.352Z,945.63
2018-06-09T07:01:00.301Z,945.65
2018-06-09T07:02:00.246Z,945.70
2018-06-09T07:03:00.122Z,945.74
2018-06-09T07:04:00.035Z,945.74
2018-06-09T07:05:00.054Z,945.43
2018-06-09T07:05:59.911Z,945.76
2018-06-09T07:06:59.800Z,945.86
2018-06-09T07:07:59.752Z,945.88
2018-06-09T07:08:59.646Z,945.81
2018-06-09T07:09:59.572Z,945.92
2018-06-09T07:10:59.521Z,943.88
2018-06-09T07:11:59.508Z,946.07
2018-06-09T07:12:59.337Z,946.41
2018-06-09T07:13:59.259Z,946.30
2018-06-09T07:14:59.183Z,946.68
2018-06-09T07:15:59.137Z,946.61
2018-06-09T07:16:59.031Z,946.83
2018-06-09T07:17:58.953Z,947.04
2018-06-09T07:18:58.969Z,946.69
2018-06-09T07:19:58.817Z,946.24
2018-06-09T07:20:58.752Z,945.53
2018-06-09T07:21:58.651Z,946.15
2018-06-09T07:22:58.577Z,946.12
2018-06-09T07:23:58.497Z,946.60
2018-06-09T07:24:58.420Z,947.22
2018-06-09T07:25:58.475Z,947.93
2018-06-09T07:26:58.269Z,948.62
2018-06-09T07:27:58.192Z,948.75
2018-06-09T07:28:58.119Z,948.49
2018-06-09T07:29:58.047Z,948.54
2018-06-09T07:30:57.998Z,947.71
2018-06-09T07:31:57.892Z,949.67
2018-06-09T07:32:57.921Z,945.22
2018-06-09T07:33:57.740Z,943.87
2018-06-09T07:34:57.664Z,943.93
2018-06-09T07:35:57.619Z,943.99
2018-06-09T07:36:57.513Z,944.46
2018-06-09T07:37:57.435Z,947.45
2018-06-09T07:38:57.360Z,946.80
2018-06-09T07:39:57.378Z,948.32
2018-06-09T07:40:57.239Z,948.28
2018-06-09T07:41:57.132Z,948.26
2018-06-09T07:42:57.055Z,948.57
2018-06-09T07:43:56.984Z,949.00
2018-06-09T07:44:56.905Z,949.12
2018-06-09T07:45:56.857Z,944.55
2018-06-09T07:46:56.855Z,947.24
2018-06-09T07:47:56.689Z,947.41
2018-06-09T07:48:56.596Z,948.59
2018-06-09T07:49:56.520Z,948.21
2018-06-09T07:50:56.475Z,945.70
2018-06-09T07:51:56.369Z,944.15
2018-06-09T07:52:56.293Z,944.04
2018-06-09T07:53:56.312Z,944.13
2018-06-09T07:54:56.138Z,944.70
2018-06-09T07:55:56.094Z,948.16
2018-06-09T07:56:55.987Z,947.60
2018-06-09T07:57:55.910Z,947.30
2018-06-09T07:58:55.835Z,947.42
2018-06-09T07:59:55.755Z,947.85
2018-06-09T08:00:55.804Z,944.17
2018-06-09T08:01:55.602Z,944.13
2018-06-09T08:02:55.534Z,944.40
2018-06-09T08:03:55.453Z,946.19
2018-06-09T08:04:55.374Z,947.43
2018-06-09T08:05:55.331Z,945.23
2018-06-09T08:06:55.264Z,944.26
2018-06-09T08:07:55.244Z,944.37
2018-06-09T08:08:55.073Z,946.44
2018-06-09T08:09:54.994Z,947.06
2018-06-09T08:10:54.948Z,946.85
2018-06-09T08:11:54.844Z,944.08
2018-06-09T08:12:54.764Z,944.24
2018-06-09T08:13:54.721Z,945.85
2018-06-09T08:14:54.712Z,944.42
2018-06-09T08:15:54.541Z,944.56
2018-06-09T08:16:54.495Z,943.90
2018-06-09T08:17:54.384Z,943.87
2018-06-09T08:18:54.310Z,943.75
2018-06-09T08:19:54.233Z,943.68
2018-06-09T08:20:54.158Z,943.63
2018-06-09T08:21:54.207Z,943.67
2018-06-09T08:22:54.002Z,943.68
2018-06-09T08:23:53.930Z,943.69
2018-06-09T08:24:53.851Z,943.72
2018-06-09T08:25:53.777Z,943.82
2018-06-09T08:26:53.724Z,943.81
2018-06-09T08:27:53.617Z,943.98
2018-06-09T08:28:53.639Z,943.86
2018-06-09T08:29:53.466Z,943.78
2018-06-09T08:30:53.389Z,943.81
2018-06-09T08:31:53.345Z,943.84
2018-06-09T08:32:53.247Z,943.90
2018-06-09T08:33:53.155Z,943.82
2018-06-09T08:34:53.078Z,943.79
2018-06-09T08:35:54.373Z,943.78
2018-06-09T08:36:52.952Z,943.78
2018-06-09T08:37:52.845Z,944.57
2018-06-09T08:38:52.767Z,944.91
2018-06-09T08:39:52.692Z,943.68
2018-06-09T08:40:52.611Z,943.53
2018-06-09T08:41:52.567Z,943.60
2018-06-09T08:42:52.455Z,943.61
2018-06-09T08:43:52.379Z,943.72
2018-06-09T08:44:52.302Z,943.79
2018-06-09T08:45:52.223Z,945.02
2018-06-09T08:46:52.180Z,944.90
2018-06-09T08:47:52.065Z,944.82
2018-06-09T08:48:52.109Z,944.69
2018-06-09T08:49:51.910Z,943.38
2018-06-09T08:50:51.829Z,943.39
2018-06-09T08:51:51.783Z,943.31
2018-06-09T08:52:51.678Z,943.28
2018-06-09T08:53:51.597Z,943.31
2018-06-09T08:54:51.519Z,943.31
2018-06-09T08:55:51.557Z,943.28
2018-06-09T08:56:51.422Z,943.33
2018-06-09T08:57:51.287Z,943.27
2018-06-09T08:58:51.220Z,943.24
2018-06-09T08:59:51.128Z,943.17
2018-06-09T09:00:51.053Z,943.19
2018-06-09T09:01:51.006Z,943.15
2018-06-09T09:02:50.891Z,943.18
2018-06-09T09:03:50.815Z,943.19
2018-06-09T09:04:50.736Z,943.21
2018-06-09T09:05:50.662Z,943.32
2018-06-09T09:06:50.608Z,943.42
2018-06-09T09:07:50.503Z,943.60
2018-06-09T09:08:50.422Z,945.07
2018-06-09T09:09:50.344Z,945.15
2018-06-09T09:10:50.264Z,945.05
2018-06-09T09:11:50.215Z,943.30
2018-06-09T09:12:50.110Z,943.20
2018-06-09T09:13:50.052Z,943.23
2018-06-09T09:14:49.950Z,943.23
2018-06-09T09:15:49.873Z,943.16
2018-06-09T09:16:49.822Z,943.14
2018-06-09T09:17:49.715Z,943.15
2018-06-09T09:18:49.635Z,943.14
2018-06-09T09:19:49.556Z,943.10
2018-06-09T09:20:49.482Z,943.15
2018-06-09T09:21:49.433Z,943.19
2018-06-09T09:22:49.413Z,943.25
2018-06-09T09:23:49.240Z,943.33
2018-06-09T09:24:49.163Z,944.67
2018-06-09T09:25:49.095Z,944.75
2018-06-09T09:26:49.038Z,944.74
2018-06-09T09:27:48.927Z,944.70
2018-06-09T09:28:48.848Z,944.75
2018-06-09T09:29:48.773Z,944.95
2018-06-09T09:30:48.692Z,943.46
2018-06-09T09:31:48.645Z,943.31
2018-06-09T09:32:48.531Z,943.17
2018-06-09T09:33:48.462Z,943.16
2018-06-09T09:34:48.376Z,943.16
2018-06-09T09:35:48.297Z,943.14
2018-06-09T09:36:48.267Z,943.11
2018-06-09T09:37:48.140Z,943.08
2018-06-09T09:38:48.060Z,943.08
2018-06-09T09:39:47.984Z,943.02
2018-06-09T09:40:47.905Z,942.97
2018-06-09T09:41:47.858Z,943.00
2018-06-09T09:42:47.750Z,942.96
2018-06-09T09:43:47.669Z,942.93
2018-06-09T09:44:47.703Z,942.85
2018-06-09T09:45:47.512Z,942.90
2018-06-09T09:46:47.440Z,942.88
2018-06-09T09:47:47.386Z,942.90
2018-06-09T09:48:47.279Z,942.91
2018-06-09T09:49:47.199Z,942.85
2018-06-09T09:50:47.118Z,942.86
2018-06-09T09:51:47.068Z,942.87
2018-06-09T09:52:46.958Z,942.84
2018-06-09T09:53:46.883Z,942.79
2018-06-09T09:54:46.803Z,942.73
2018-06-09T09:55:46.722Z,942.69
2018-06-09T09:56:46.658Z,942.72
2018-06-09T09:57:46.596Z,942.71
2018-06-09T09:58:46.480Z,942.78
2018-06-09T09:59:46.403Z,942.78
2018-06-09T10:00:46.324Z,942.84
2018-06-09T10:01:46.246Z,942.95
2018-06-09T10:02:46.198Z,943.11
2018-06-09T10:03:46.082Z,943.22
2018-06-09T10:04:46.021Z,943.53
2018-06-09T10:05:45.924Z,944.08
2018-06-09T10:06:45.846Z,943.91
2018-06-09T10:07:45.790Z,943.85
2018-06-09T10:08:45.680Z,943.58
2018-06-09T10:09:45.601Z,943.32
2018-06-09T10:10:45.517Z,943.26
2018-06-09T10:11:45.435Z,943.16
2018-06-09T10:12:45.387Z,943.24
2018-06-09T10:13:45.269Z,943.29
2018-06-09T10:14:45.186Z,943.05
2018-06-09T10:15:45.103Z,943.28
2018-06-09T10:16:45.022Z,943.31
2018-06-09T10:17:44.965Z,943.37
2018-06-09T10:18:44.848Z,943.47
2018-06-09T12:52:12.304Z,943.32
2018-06-09T12:53:10.148Z,943.29
2018-06-09T12:54:10.277Z,943.30
2018-06-09T12:55:09.972Z,943.35
2018-06-09T12:56:09.883Z,943.38
2018-06-09T12:57:09.796Z,943.38
2018-06-09T12:58:09.712Z,943.37
2018-06-09T12:59:09.653Z,943.41
2018-06-09T13:00:09.535Z,943.41
2018-06-09T13:01:09.454Z,943.40
2018-06-09T13:02:09.362Z,943.38
2018-06-09T13:03:09.300Z,943.42
2018-06-09T13:04:09.219Z,943.38
2018-06-09T13:05:09.110Z,943.36
2018-06-09T13:06:09.108Z,943.38
2018-06-09T13:07:08.925Z,943.37
2018-06-09T13:08:08.840Z,943.36
2018-06-09T13:09:08.800Z,943.41
2018-06-09T13:10:08.705Z,943.42
2018-06-09T13:11:08.578Z,943.38
2018-06-09T13:12:08.493Z,943.38
2018-06-09T13:13:08.404Z,943.41
2018-06-09T13:14:08.387Z,943.40
2018-06-09T13:15:08.236Z,943.40
2018-06-09T13:16:08.148Z,943.39
2018-06-09T13:17:08.061Z,943.37
2018-06-09T13:18:07.977Z,943.36
2018-06-09T13:19:07.938Z,943.37
2018-06-09T13:20:07.799Z,943.37
2018-06-09T13:21:07.712Z,943.39
2018-06-09T13:22:07.629Z,943.40
2018-06-09T13:23:07.543Z,943.44
2018-06-09T13:24:07.482Z,943.44
2018-06-09T13:25:07.366Z,943.40
2018-06-09T13:26:07.375Z,943.39
2018-06-09T13:27:07.198Z,943.36
2018-06-09T13:28:07.107Z,943.34
2018-06-09T13:29:07.052Z,943.30
2018-06-09T13:30:06.933Z,943.31
2018-06-09T13:31:06.846Z,943.26
2018-06-09T13:32:06.760Z,943.26
2018-06-09T13:33:06.767Z,943.21
2018-06-09T13:34:06.621Z,943.18
2018-06-09T13:35:06.500Z,943.20
2018-06-09T13:36:06.444Z,943.18
2018-06-09T13:37:06.328Z,943.15
2018-06-09T13:38:06.261Z,943.19
2018-06-09T13:39:06.185Z,943.15
2018-06-09T13:40:06.067Z,943.17
2018-06-09T13:41:05.982Z,943.19
2018-06-09T13:42:05.897Z,943.20
2018-06-09T13:43:05.808Z,943.16
2018-06-09T13:44:05.757Z,943.17
2018-06-09T13:45:05.638Z,943.16
2018-06-09T13:46:05.554Z,943.14
2018-06-09T13:47:05.464Z,943.11
2018-06-09T13:48:05.396Z,943.14
2018-06-09T13:49:05.290Z,943.15
2018-06-09T13:50:05.240Z,943.13
2018-06-09T13:51:05.119Z,943.15
2018-06-09T13:52:05.035Z,943.20
2018-06-09T13:53:04.949Z,943.16
2018-06-09T13:54:04.864Z,943.15
2018-06-09T13:55:04.805Z,943.10
2018-06-09T13:56:04.691Z,943.10
2018-06-09T13:57:04.601Z,943.12
2018-06-09T13:58:04.520Z,943.10
2018-06-09T13:59:04.435Z,943.02
2018-06-09T14:00:04.377Z,943.02
2018-06-09T14:01:04.263Z,943.02
2018-06-09T14:02:04.175Z,943.00
2018-06-09T14:03:04.090Z,943.01
2018-06-09T14:04:04.009Z,943.02
2018-06-09T14:05:03.949Z,943.03
2018-06-09T14:06:03.834Z,943.00
2018-06-09T14:07:03.747Z,942.99
2018-06-09T14:08:03.660Z,943.00
2018-06-09T14:09:03.578Z,942.97
2018-06-09T14:10:03.527Z,942.96
2018-06-09T14:11:03.410Z,942.94
2018-06-09T14:12:03.320Z,942.89
2018-06-09T14:13:03.233Z,942.88
2018-06-09T14:14:03.153Z,942.84
2018-06-09T14:15:03.097Z,942.82
2018-06-09T14:16:02.980Z,942.81
2018-06-09T14:17:02.894Z,942.75
2018-06-09T14:18:02.810Z,942.75
2018-06-09T14:19:02.723Z,942.73
2018-06-09T14:20:02.670Z,942.73
2018-06-09T14:21:02.649Z,942.70
2018-06-09T14:22:02.470Z,942.64
2018-06-09T14:23:02.385Z,942.63
2018-06-09T14:24:02.299Z,942.61
2018-06-09T14:25:02.249Z,942.58
2018-06-09T14:26:02.129Z,942.59
2018-06-09T14:27:02.046Z,942.60
2018-06-09T14:28:01.963Z,942.60
2018-06-09T14:29:01.877Z,942.57
2018-06-09T14:30:01.824Z,942.58
2018-06-09T14:31:01.710Z,942.55
2018-06-09T14:32:01.624Z,942.51
2018-06-09T14:33:01.542Z,942.53
2018-06-09T14:34:01.462Z,942.47
2018-06-09T14:35:01.497Z,942.44
2018-06-09T14:36:01.289Z,942.46
2018-06-09T14:37:01.204Z,942.45
2018-06-09T14:38:01.122Z,942.46
2018-06-09T14:39:01.038Z,942.44
2018-06-09T14:40:00.984Z,942.48
2018-06-09T14:41:00.963Z,942.45
2018-06-09T14:42:00.788Z,942.43
2018-06-09T14:43:00.705Z,942.42
2018-06-09T14:44:01.493Z,942.43
2018-06-09T14:45:00.569Z,942.44
2018-06-09T14:46:00.488Z,942.43
2018-06-09T14:47:00.369Z,942.43
2018-06-09T14:48:00.289Z,942.41
2018-06-09T14:49:00.203Z,942.41
2018-06-09T14:50:00.153Z,942.36
2018-06-09T14:51:00.037Z,942.38
2018-06-09T14:51:59.953Z,942.39
2018-06-09T14:52:59.874Z,942.36
2018-06-09T14:53:59.794Z,942.41
2018-06-09T14:54:59.829Z,942.39
2018-06-09T14:55:59.623Z,942.45
2018-06-09T14:56:59.538Z,942.47
2018-06-09T14:57:59.456Z,942.44
2018-06-09T14:58:59.371Z,942.47
2018-06-09T14:59:59.319Z,942.47